Airfield :
LOGIN :

Register | Disclaimer

   EN    FR    IT 

 










Legend :    VFR   Marginal VFR   IFR   Intensive IFR   Very Intensive IFR
Visi :
Ceiling :
>= 8 km
>= 3000ft
5 to 8 km
1000 to 3000 ft
1500m to 5 km
500 to 1000 ft
800 to 1500m
200 to 500 ft
< 800m
< 200 ft
Symbols :   Thunderstorms  Fog  Heavy snow  Heavy precipitations  Wind > 20 kt
SIGMETs :     Misc.  Thunderstorms  Icing  Turbulence  Mountain Waves  Volcanic Ashes






- Airport Elevation : 961 ft
- IATA code : VIN


UKWW - Gavryshivka

CURRENT METAR :
  • 050730Z 17004MPS 9999 SCT033CB 16/13 Q1005 R31/0///65 NOSIG

EXPIRED METARs :
  • 050700Z 19004MPS 9999 SCT033CB 16/13 Q1005 R31/0///65 NOSIG
  • 050630Z 20003MPS 160V230 9999 NSC 16/13 Q1005 R31/0///65 NOSIG
  • 050600Z 20004MPS 9999 NSC 15/13 Q1005 R31/0///65 NOSIG
  • 050530Z 21004MPS 170V240 9999 NSC 15/12 Q1005 R31/0///65 NOSIG
  • 050500Z 21003MPS 180V250 9999 NSC 15/12 Q1005 R31/0///65 NOSIG

TAF TAF UKWW
Valid from the 05 at 06:00 until the 05 at 15:00 UTC


050510Z 0506/0515 23005G10MPS 9999 BKN025
TEMPO 0506/0509 3000 -SHRA BKN015CB
TEMPO 0509/0515 VRB09G14MPS 2100 -TSRAGR SCT004 BKN010CB



MET'MAP, your aeronautical weather chart ! - Copyright ORBIFLY December 2007 - Disclaimer

ORBIFLY MET'MAP TEAM :

Programming & Development : Alexandra Zaïnal
Concept & original design : Baudouin d'Aumeries
Assistance for programming : Marc-Olivier Méhu
Technical & hardware support : Manuel Goepfert

Contact : metmap@orbifly.com




SOURCES & CREDITS :

   NOAA